Chicago, Illinois
Traffic Map
Current Weather Conditions
Chicago, Illinois
Overcast
Overcast
71°
Feels Like: 71°
Wind Chill: 71° Ceiling: 2500
Heat Index: 71° Visibility: 10mi
Dew Point: 61° Wind: 21mph
Humidity: 70% Direction: 180° (S)
Pressure: 29.94in Gusts: 26mph
Raw Report DataKMDW 221653Z 18018G23KT 10SM OVC025 22/16 A2994 RMK AO2 SLP131 T02170161
Traffic Incident Summary
Active as of:
Severity:
Category:
InformationThere was an issue retrieving the traffic information for this location. Please try a different location or try again shortly.
Advertisements